sensor_id;sensor_type;location;lat;lon;timestamp;pressure;altitude;pressure_sealevel;temperature;humidity
3178;BME280;38141;42.666;23.344;2024-03-02T00:00:38;94115.84;;;8.22;100.00
3178;BME280;38141;42.666;23.344;2024-03-02T00:03:06;94120.84;;;8.23;100.00
3178;BME280;38141;42.666;23.344;2024-03-02T00:05:35;94118.91;;;8.20;100.00
3178;BME280;38141;42.666;23.344;2024-03-02T00:08:05;94144.38;;;8.37;100.00
3178;BME280;38141;42.666;23.344;2024-03-02T00:10:37;94126.69;;;8.39;100.00
3178;BME280;38141;42.666;23.344;2024-03-02T00:13:05;94136.31;;;8.40;100.00
3178;BME280;38141;42.666;23.344;2024-03-02T00:15:46;94134.00;;;8.35;100.00
3178;BME280;38141;42.666;23.344;2024-03-02T00:18:16;94119.31;;;8.26;100.00
3178;BME280;38141;42.666;23.344;2024-03-02T00:20:45;94108.50;;;8.22;100.00
3178;BME280;38141;42.666;23.344;2024-03-02T00:23:15;94106.66;;;8.33;100.00
3178;BME280;38141;42.666;23.344;2024-03-02T00:25:44;94103.53;;;8.17;100.00
3178;BME280;38141;42.666;23.344;2024-03-02T00:30:46;94092.41;;;8.29;100.00
3178;BME280;38141;42.666;23.344;2024-03-02T00:33:19;94083.97;;;8.38;100.00
3178;BME280;38141;42.666;23.344;2024-03-02T00:35:47;94092.81;;;8.35;100.00
3178;BME280;38141;42.666;23.344;2024-03-02T00:38:14;94079.31;;;8.31;100.00
3178;BME280;38141;42.666;23.344;2024-03-02T00:40:42;94085.47;;;8.32;100.00
3178;BME280;38141;42.666;23.344;2024-03-02T00:43:41;94075.50;;;8.43;100.00
3178;BME280;38141;42.666;23.344;2024-03-02T00:46:11;94085.88;;;8.34;100.00
3178;BME280;38141;42.666;23.344;2024-03-02T00:48:39;94079.34;;;8.45;100.00
3178;BME280;38141;42.666;23.344;2024-03-02T00:51:06;94076.28;;;8.40;100.00
3178;BME280;38141;42.666;23.344;2024-03-02T00:53:33;94063.94;;;8.42;100.00
3178;BME280;38141;42.666;23.344;2024-03-02T00:56:01;94080.88;;;8.50;100.00
3178;BME280;38141;42.666;23.344;2024-03-02T00:58:28;94081.25;;;8.45;100.00
3178;BME280;38141;42.666;23.344;2024-03-02T01:00:55;94079.72;;;8.55;100.00
3178;BME280;38141;42.666;23.344;2024-03-02T01:03:24;94089.38;;;8.59;100.00
3178;BME280;38141;42.666;23.344;2024-03-02T01:05:51;94095.16;;;8.61;100.00
3178;BME280;38141;42.666;23.344;2024-03-02T01:08:18;94088.22;;;8.64;100.00
3178;BME280;38141;42.666;23.344;2024-03-02T01:10:45;94103.63;;;8.70;100.00
3178;BME280;38141;42.666;23.344;2024-03-02T01:13:12;94095.94;;;8.65;100.00
3178;BME280;38141;42.666;23.344;2024-03-02T01:15:40;94086.31;;;8.75;100.00
3178;BME280;38141;42.666;23.344;2024-03-02T01:18:07;94095.94;;;8.93;100.00
3178;BME280;38141;42.666;23.344;2024-03-02T01:20:35;94083.22;;;8.83;100.00
3178;BME280;38141;42.666;23.344;2024-03-02T01:23:02;94079.75;;;8.76;100.00
3178;BME280;38141;42.666;23.344;2024-03-02T01:25:30;94080.16;;;8.85;100.00
3178;BME280;38141;42.666;23.344;2024-03-02T01:27:57;94073.59;;;8.93;100.00
3178;BME280;38141;42.666;23.344;2024-03-02T01:30:23;94071.66;;;8.86;100.00
3178;BME280;38141;42.666;23.344;2024-03-02T01:32:50;94069.72;;;8.73;100.00
3178;BME280;38141;42.666;23.344;2024-03-02T01:35:17;94065.50;;;8.79;100.00
3178;BME280;38141;42.666;23.344;2024-03-02T01:37:46;94054.72;;;8.75;100.00
3178;BME280;38141;42.666;23.344;2024-03-02T01:40:13;94050.47;;;8.60;100.00
3178;BME280;38141;42.666;23.344;2024-03-02T01:42:40;94060.88;;;8.83;100.00
3178;BME280;38141;42.666;23.344;2024-03-02T01:45:08;94075.88;;;8.77;100.00
3178;BME280;38141;42.666;23.344;2024-03-02T01:47:35;94072.44;;;8.83;100.00
3178;BME280;38141;42.666;23.344;2024-03-02T01:50:03;94061.25;;;8.78;100.00
3178;BME280;38141;42.666;23.344;2024-03-02T01:52:30;94058.94;;;8.87;100.00
3178;BME280;38141;42.666;23.344;2024-03-02T01:54:58;94060.09;;;8.93;100.00
3178;BME280;38141;42.666;23.344;2024-03-02T01:57:25;94045.06;;;8.96;100.00
3178;BME280;38141;42.666;23.344;2024-03-02T01:59:52;94060.09;;;8.93;100.00
3178;BME280;38141;42.666;23.344;2024-03-02T02:02:19;94055.47;;;8.97;100.00
3178;BME280;38141;42.666;23.344;2024-03-02T02:04:46;94058.94;;;8.98;100.00
3178;BME280;38141;42.666;23.344;2024-03-02T02:07:13;94059.34;;;8.89;100.00
3178;BME280;38141;42.666;23.344;2024-03-02T02:09:41;94063.19;;;8.81;100.00
3178;BME280;38141;42.666;23.344;2024-03-02T02:12:10;94041.22;;;8.68;100.00
3178;BME280;38141;42.666;23.344;2024-03-02T02:14:37;94050.47;;;8.71;100.00
3178;BME280;38141;42.666;23.344;2024-03-02T02:17:05;94045.84;;;8.82;100.00
3178;BME280;38141;42.666;23.344;2024-03-02T02:19:32;94062.03;;;8.64;100.00
3178;BME280;38141;42.666;23.344;2024-03-02T02:22:01;94040.84;;;8.70;100.00
3178;BME280;38141;42.666;23.344;2024-03-02T02:24:28;94042.75;;;8.73;100.00
3178;BME280;38141;42.666;23.344;2024-03-02T02:26:55;94018.50;;;8.34;100.00
3178;BME280;38141;42.666;23.344;2024-03-02T02:29:22;94047.75;;;8.49;100.00
3178;BME280;38141;42.666;23.344;2024-03-02T02:31:49;94046.63;;;8.40;100.00
3178;BME280;38141;42.666;23.344;2024-03-02T02:34:16;94048.16;;;8.59;100.00
3178;BME280;38141;42.666;23.344;2024-03-02T02:36:44;94048.94;;;8.56;100.00
3178;BME280;38141;42.666;23.344;2024-03-02T02:39:15;94050.84;;;8.55;100.00
3178;BME280;38141;42.666;23.344;2024-03-02T02:41:42;94043.16;;;8.57;100.00
3178;BME280;38141;42.666;23.344;2024-03-02T02:44:09;94045.84;;;8.57;100.00
3178;BME280;38141;42.666;23.344;2024-03-02T02:46:38;94043.53;;;8.56;100.00
3178;BME280;38141;42.666;23.344;2024-03-02T02:49:05;94057.00;;;8.59;100.00
3178;BME280;38141;42.666;23.344;2024-03-02T02:51:32;94050.47;;;8.46;100.00
3178;BME280;38141;42.666;23.344;2024-03-02T02:54:00;94057.41;;;8.61;100.00
3178;BME280;38141;42.666;23.344;2024-03-02T02:56:28;94047.38;;;8.72;100.00
3178;BME280;38141;42.666;23.344;2024-03-02T02:58:55;94057.00;;;8.73;100.00
3178;BME280;38141;42.666;23.344;2024-03-02T03:01:22;94050.47;;;8.81;100.00
3178;BME280;38141;42.666;23.344;2024-03-02T03:03:49;94054.72;;;8.79;100.00
3178;BME280;38141;42.666;23.344;2024-03-02T03:06:16;94050.09;;;8.76;100.00
3178;BME280;38141;42.666;23.344;2024-03-02T03:08:43;94037.38;;;8.83;100.00
3178;BME280;38141;42.666;23.344;2024-03-02T03:11:10;94051.97;;;9.11;100.00
3178;BME280;38141;42.666;23.344;2024-03-02T03:13:39;94046.16;;;9.30;100.00
3178;BME280;38141;42.666;23.344;2024-03-02T03:16:06;94050.81;;;9.05;100.00
3178;BME280;38141;42.666;23.344;2024-03-02T03:18:33;94043.50;;;9.09;100.00
3178;BME280;38141;42.666;23.344;2024-03-02T03:21:00;94050.47;;;8.92;100.00
3178;BME280;38141;42.666;23.344;2024-03-02T03:23:28;94052.00;;;8.93;100.00
3178;BME280;38141;42.666;23.344;2024-03-02T03:25:55;94053.56;;;8.83;100.00
3178;BME280;38141;42.666;23.344;2024-03-02T03:28:22;94040.06;;;8.80;100.00
3178;BME280;38141;42.666;23.344;2024-03-02T03:30:50;94053.56;;;8.76;100.00
3178;BME280;38141;42.666;23.344;2024-03-02T03:33:17;94047.75;;;8.81;100.00
3178;BME280;38141;42.666;23.344;2024-03-02T03:35:44;94052.41;;;8.88;100.00
3178;BME280;38141;42.666;23.344;2024-03-02T03:38:11;94040.47;;;8.71;100.00
3178;BME280;38141;42.666;23.344;2024-03-02T03:40:38;94049.31;;;8.61;100.00
3178;BME280;38141;42.666;23.344;2024-03-02T03:43:05;94057.03;;;8.70;100.00
3178;BME280;38141;42.666;23.344;2024-03-02T03:45:32;94047.75;;;8.49;100.00
3178;BME280;38141;42.666;23.344;2024-03-02T03:48:01;94050.47;;;8.60;100.00
3178;BME280;38141;42.666;23.344;2024-03-02T03:50:28;94055.84;;;8.49;100.00
3178;BME280;38141;42.666;23.344;2024-03-02T03:52:55;94054.34;;;8.63;100.00
3178;BME280;38141;42.666;23.344;2024-03-02T03:55:22;94048.94;;;8.52;100.00
3178;BME280;38141;42.666;23.344;2024-03-02T03:57:49;94050.09;;;8.65;100.00
3178;BME280;38141;42.666;23.344;2024-03-02T04:00:16;94057.03;;;8.63;100.00
3178;BME280;38141;42.666;23.344;2024-03-02T04:02:43;94047.41;;;8.65;100.00
3178;BME280;38141;42.666;23.344;2024-03-02T04:05:12;94053.94;;;8.71;100.00
3178;BME280;38141;42.666;23.344;2024-03-02T04:07:39;94057.00;;;8.73;100.00
3178;BME280;38141;42.666;23.344;2024-03-02T04:10:08;94040.44;;;8.68;100.00
3178;BME280;38141;42.666;23.344;2024-03-02T04:12:36;94045.47;;;8.66;100.00
3178;BME280;38141;42.666;23.344;2024-03-02T04:15:04;94052.03;;;8.75;100.00
3178;BME280;38141;42.666;23.344;2024-03-02T04:17:32;94053.16;;;8.74;100.00
3178;BME280;38141;42.666;23.344;2024-03-02T04:20:01;94055.84;;;9.03;100.00
3178;BME280;38141;42.666;23.344;2024-03-02T04:22:33;94043.13;;;9.07;100.00
3178;BME280;38141;42.666;23.344;2024-03-02T04:25:01;94052.38;;;9.16;100.00
3178;BME280;38141;42.666;23.344;2024-03-02T04:27:30;94056.22;;;9.15;100.00
3178;BME280;38141;42.666;23.344;2024-03-02T04:29:57;94065.03;;;9.33;100.00
3178;BME280;38141;42.666;23.344;2024-03-02T04:32:25;94065.81;;;9.37;100.00
3178;BME280;38141;42.666;23.344;2024-03-02T04:34:52;94055.75;;;9.52;100.00
3178;BME280;38141;42.666;23.344;2024-03-02T04:37:20;94058.09;;;9.43;100.00
3178;BME280;38141;42.666;23.344;2024-03-02T04:39:48;94058.81;;;9.58;100.00
3178;BME280;38141;42.666;23.344;2024-03-02T04:42:14;94051.53;;;9.44;100.00
3178;BME280;38141;42.666;23.344;2024-03-02T04:44:41;94060.75;;;9.57;100.00
3178;BME280;38141;42.666;23.344;2024-03-02T04:47:08;94053.81;;;9.49;100.00
3178;BME280;38141;42.666;23.344;2024-03-02T04:49:35;94056.13;;;9.58;100.00
3178;BME280;38141;42.666;23.344;2024-03-02T04:52:03;94071.13;;;9.66;100.00
3178;BME280;38141;42.666;23.344;2024-03-02T04:54:30;94074.94;;;9.75;100.00
3178;BME280;38141;42.666;23.344;2024-03-02T04:56:58;94074.16;;;9.86;100.00
3178;BME280;38141;42.666;23.344;2024-03-02T04:59:25;94074.50;;;9.88;100.00
3178;BME280;38141;42.666;23.344;2024-03-02T05:01:52;94077.63;;;9.79;100.00
3178;BME280;38141;42.666;23.344;2024-03-02T05:04:19;94058.03;;;9.57;100.00
3178;BME280;38141;42.666;23.344;2024-03-02T05:06:46;94071.41;;;9.89;100.00
3178;BME280;38141;42.666;23.344;2024-03-02T05:09:18;94077.19;;;9.95;100.00
3178;BME280;38141;42.666;23.344;2024-03-02T05:11:47;94075.66;;;9.90;100.00
3178;BME280;38141;42.666;23.344;2024-03-02T05:14:37;94075.63;;;9.97;100.00
3178;BME280;38141;42.666;23.344;2024-03-02T05:17:04;94077.16;;;9.98;100.00
3178;BME280;38141;42.666;23.344;2024-03-02T05:19:31;94084.50;;;9.91;100.00
3178;BME280;38141;42.666;23.344;2024-03-02T05:21:58;94091.88;;;9.87;100.00
3178;BME280;38141;42.666;23.344;2024-03-02T05:24:25;94079.75;;;10.23;100.00
3178;BME280;38141;42.666;23.344;2024-03-02T05:26:53;94090.25;;;10.07;100.00
3178;BME280;38141;42.666;23.344;2024-03-02T05:29:21;94096.03;;;10.16;100.00
3178;BME280;38141;42.666;23.344;2024-03-02T05:31:49;94094.91;;;10.03;100.00
3178;BME280;38141;42.666;23.344;2024-03-02T05:34:16;94093.41;;;9.95;100.00
3178;BME280;38141;42.666;23.344;2024-03-02T05:36:44;94099.97;;;9.87;100.00
3178;BME280;38141;42.666;23.344;2024-03-02T05:39:11;94102.31;;;9.77;100.00
3178;BME280;38141;42.666;23.344;2024-03-02T05:41:40;94088.47;;;9.68;100.00
3178;BME280;38141;42.666;23.344;2024-03-02T05:44:07;94102.34;;;9.74;100.00
3178;BME280;38141;42.666;23.344;2024-03-02T05:46:34;94107.34;;;9.79;100.00
3178;BME280;38141;42.666;23.344;2024-03-02T05:49:03;94115.88;;;9.70;100.00
3178;BME280;38141;42.666;23.344;2024-03-02T05:51:30;94114.66;;;9.78;100.00
3178;BME280;38141;42.666;23.344;2024-03-02T05:53:57;94112.34;;;9.77;100.00
3178;BME280;38141;42.666;23.344;2024-03-02T05:56:24;94111.19;;;9.81;100.00
3178;BME280;38141;42.666;23.344;2024-03-02T05:58:51;94118.47;;;9.92;100.00
3178;BME280;38141;42.666;23.344;2024-03-02T06:01:32;94105.34;;;9.97;100.00
3178;BME280;38141;42.666;23.344;2024-03-02T06:03:59;94113.84;;;9.92;100.00
3178;BME280;38141;42.666;23.344;2024-03-02T06:06:28;94118.94;;;9.72;100.00
3178;BME280;38141;42.666;23.344;2024-03-02T06:08:55;94113.94;;;9.71;100.00
3178;BME280;38141;42.666;23.344;2024-03-02T06:11:24;94116.59;;;9.85;100.00
3178;BME280;38141;42.666;23.344;2024-03-02T06:13:51;94122.81;;;9.64;100.00
3178;BME280;38141;42.666;23.344;2024-03-02T06:16:18;94121.31;;;9.49;100.00
3178;BME280;38141;42.666;23.344;2024-03-02T06:18:45;94125.94;;;9.52;100.00
3178;BME280;38141;42.666;23.344;2024-03-02T06:21:12;94105.91;;;9.43;100.00
3178;BME280;38141;42.666;23.344;2024-03-02T06:23:41;94125.16;;;9.62;100.00
3178;BME280;38141;42.666;23.344;2024-03-02T06:26:08;94122.09;;;9.39;100.00
3178;BME280;38141;42.666;23.344;2024-03-02T06:28:35;94125.16;;;9.55;100.00
3178;BME280;38141;42.666;23.344;2024-03-02T06:31:02;94125.53;;;9.50;100.00
3178;BME280;38141;42.666;23.344;2024-03-02T06:33:29;94125.16;;;9.41;100.00
3178;BME280;38141;42.666;23.344;2024-03-02T06:35:56;94129.41;;;9.49;100.00
3178;BME280;38141;42.666;23.344;2024-03-02T06:38:23;94130.59;;;9.30;100.00
3178;BME280;38141;42.666;23.344;2024-03-02T06:40:52;94134.06;;;9.31;100.00
3178;BME280;38141;42.666;23.344;2024-03-02T06:43:19;94125.97;;;9.38;100.00
3178;BME280;38141;42.666;23.344;2024-03-02T06:45:48;94124.41;;;9.23;100.00
3178;BME280;38141;42.666;23.344;2024-03-02T06:48:16;94122.53;;;9.13;100.00
3178;BME280;38141;42.666;23.344;2024-03-02T06:50:45;94119.41;;;9.18;100.00
3178;BME280;38141;42.666;23.344;2024-03-02T06:53:13;94129.81;;;9.09;100.00
3178;BME280;38141;42.666;23.344;2024-03-02T06:55:43;94131.00;;;9.22;100.00
3178;BME280;38141;42.666;23.344;2024-03-02T06:58:12;94133.28;;;9.45;100.00
3178;BME280;38141;42.666;23.344;2024-03-02T07:00:40;94130.97;;;9.29;100.00
3178;BME280;38141;42.666;23.344;2024-03-02T07:03:07;94141.00;;;9.43;100.00
3178;BME280;38141;42.666;23.344;2024-03-02T07:05:35;94129.44;;;9.24;100.00
3178;BME280;38141;42.666;23.344;2024-03-02T07:08:02;94137.53;;;9.28;100.00
3178;BME280;38141;42.666;23.344;2024-03-02T07:10:30;94144.81;;;9.56;100.00
3178;BME280;38141;42.666;23.344;2024-03-02T07:12:57;94137.88;;;9.51;100.00
3178;BME280;38141;42.666;23.344;2024-03-02T07:15:26;94145.63;;;9.49;100.00
3178;BME280;38141;42.666;23.344;2024-03-02T07:18:09;94142.16;;;9.38;100.00
3178;BME280;38141;42.666;23.344;2024-03-02T07:20:37;94148.28;;;9.56;100.00
3178;BME280;38141;42.666;23.344;2024-03-02T07:23:07;94143.69;;;9.46;100.00
3178;BME280;38141;42.666;23.344;2024-03-02T07:25:34;94155.63;;;9.45;100.00
3178;BME280;38141;42.666;23.344;2024-03-02T07:28:02;94154.13;;;9.33;100.00
3178;BME280;38141;42.666;23.344;2024-03-02T07:30:31;94152.94;;;9.42;100.00
3178;BME280;38141;42.666;23.344;2024-03-02T07:32:58;94151.78;;;9.43;100.00
3178;BME280;38141;42.666;23.344;2024-03-02T07:35:26;94147.19;;;9.29;100.00
3178;BME280;38141;42.666;23.344;2024-03-02T07:37:53;94155.66;;;9.27;100.00
3178;BME280;38141;42.666;23.344;2024-03-02T07:40:21;94153.72;;;9.00;100.00
3178;BME280;38141;42.666;23.344;2024-03-02T07:42:48;94150.66;;;9.01;100.00
3178;BME280;38141;42.666;23.344;2024-03-02T07:45:15;94144.50;;;8.90;100.00
3178;BME280;38141;42.666;23.344;2024-03-02T07:48:27;94146.03;;;8.95;100.00
3178;BME280;38141;42.666;23.344;2024-03-02T07:50:55;94162.22;;;9.02;100.00
3178;BME280;38141;42.666;23.344;2024-03-02T07:53:22;94158.72;;;8.87;100.00
3178;BME280;38141;42.666;23.344;2024-03-02T07:55:50;94161.81;;;8.92;100.00
3178;BME280;38141;42.666;23.344;2024-03-02T07:58:19;94151.41;;;9.02;100.00
3178;BME280;38141;42.666;23.344;2024-03-02T08:00:47;94166.84;;;9.05;100.00
3178;BME280;38141;42.666;23.344;2024-03-02T08:03:14;94152.19;;;9.09;100.00
3178;BME280;38141;42.666;23.344;2024-03-02T08:05:44;94161.44;;;9.19;100.00
3178;BME280;38141;42.666;23.344;2024-03-02T08:08:11;94135.59;;;8.82;100.00
3178;BME280;38141;42.666;23.344;2024-03-02T08:10:41;94141.41;;;8.88;100.00
3178;BME280;38141;42.666;23.344;2024-03-02T08:13:08;94155.63;;;8.74;100.00
3178;BME280;38141;42.666;23.344;2024-03-02T08:15:35;94168.38;;;8.95;100.00
3178;BME280;38141;42.666;23.344;2024-03-02T08:18:06;94177.25;;;9.27;100.00
3178;BME280;38141;42.666;23.344;2024-03-02T08:20:36;94167.22;;;9.14;100.00
3178;BME280;38141;42.666;23.344;2024-03-02T08:23:04;94161.44;;;9.05;100.00
3178;BME280;38141;42.666;23.344;2024-03-02T08:25:31;94174.94;;;9.29;100.00
3178;BME280;38141;42.666;23.344;2024-03-02T08:27:59;94179.56;;;9.08;100.00
3178;BME280;38141;42.666;23.344;2024-03-02T08:30:25;94173.03;;;9.12;100.00
3178;BME280;38141;42.666;23.344;2024-03-02T08:32:52;94165.69;;;9.37;100.00
3178;BME280;38141;42.666;23.344;2024-03-02T08:35:20;94171.09;;;9.34;100.00
3178;BME280;38141;42.666;23.344;2024-03-02T08:37:47;94169.13;;;9.27;100.00
3178;BME280;38141;42.666;23.344;2024-03-02T08:40:16;94174.94;;;9.26;100.00
3178;BME280;38141;42.666;23.344;2024-03-02T08:42:43;94168.38;;;9.34;100.00
3178;BME280;38141;42.666;23.344;2024-03-02T08:45:11;94176.06;;;9.57;100.00
3178;BME280;38141;42.666;23.344;2024-03-02T08:47:38;94169.88;;;9.60;100.00
3178;BME280;38141;42.666;23.344;2024-03-02T08:50:06;94168.69;;;9.86;100.00
3178;BME280;38141;42.666;23.344;2024-03-02T08:52:34;94170.19;;;9.97;100.00
3178;BME280;38141;42.666;23.344;2024-03-02T08:55:01;94177.16;;;9.91;100.00
3178;BME280;38141;42.666;23.344;2024-03-02T08:57:29;94172.47;;;10.20;100.00
3178;BME280;38141;42.666;23.344;2024-03-02T08:59:56;94177.41;;;10.32;100.00
3178;BME280;38141;42.666;23.344;2024-03-02T09:02:23;94177.72;;;10.52;100.00
3178;BME280;38141;42.666;23.344;2024-03-02T09:04:51;94176.78;;;10.83;100.00
3178;BME280;38141;42.666;23.344;2024-03-02T09:07:18;94169.91;;;10.72;100.00
3178;BME280;38141;42.666;23.344;2024-03-02T09:09:45;94177.53;;;10.84;100.00
3178;BME280;38141;42.666;23.344;2024-03-02T09:12:12;94178.69;;;10.90;100.00
3178;BME280;38141;42.666;23.344;2024-03-02T09:14:40;94178.59;;;11.00;100.00
3178;BME280;38141;42.666;23.344;2024-03-02T09:17:08;94186.06;;;10.82;100.00
3178;BME280;38141;42.666;23.344;2024-03-02T09:19:36;94187.88;;;10.99;100.00
3178;BME280;38141;42.666;23.344;2024-03-02T09:22:04;94191.53;;;10.75;100.00
3178;BME280;38141;42.666;23.344;2024-03-02T09:24:31;94184.19;;;10.68;100.00
3178;BME280;38141;42.666;23.344;2024-03-02T09:26:59;94193.41;;;10.78;100.00
3178;BME280;38141;42.666;23.344;2024-03-02T09:29:27;94188.16;;;10.50;100.00
3178;BME280;38141;42.666;23.344;2024-03-02T09:31:56;94192.09;;;10.35;100.00
3178;BME280;38141;42.666;23.344;2024-03-02T09:34:23;94196.78;;;10.23;100.00
3178;BME280;38141;42.666;23.344;2024-03-02T09:36:51;94190.16;;;10.32;100.00
3178;BME280;38141;42.666;23.344;2024-03-02T09:39:18;94196.28;;;10.53;100.00
3178;BME280;38141;42.666;23.344;2024-03-02T09:41:45;94205.25;;;10.15;100.00
3178;BME280;38141;42.666;23.344;2024-03-02T09:44:12;94200.25;;;10.13;100.00
3178;BME280;38141;42.666;23.344;2024-03-02T09:46:39;94189.41;;;10.35;100.00
3178;BME280;38141;42.666;23.344;2024-03-02T09:49:10;94194.03;;;10.34;100.00
3178;BME280;38141;42.666;23.344;2024-03-02T09:51:37;94202.50;;;10.40;100.00
3178;BME280;38141;42.666;23.344;2024-03-02T09:54:07;94206.03;;;10.26;100.00
3178;BME280;38141;42.666;23.344;2024-03-02T09:56:34;94205.66;;;10.24;100.00
3178;BME280;38141;42.666;23.344;2024-03-02T09:59:01;94195.28;;;9.91;100.00
3178;BME280;38141;42.666;23.344;2024-03-02T10:01:28;94195.63;;;10.10;100.00
3178;BME280;38141;42.666;23.344;2024-03-02T10:03:56;94200.69;;;9.94;100.00
3178;BME280;38141;42.666;23.344;2024-03-02T10:06:27;94199.47;;;10.31;100.00
3178;BME280;38141;42.666;23.344;2024-03-02T10:08:55;94186.97;;;10.54;100.00
3178;BME280;38141;42.666;23.344;2024-03-02T10:11:26;94197.44;;;10.45;100.00
3178;BME280;38141;42.666;23.344;2024-03-02T10:14:08;94195.91;;;10.41;100.00
3178;BME280;38141;42.666;23.344;2024-03-02T10:16:36;94188.59;;;10.38;100.00
3178;BME280;38141;42.666;23.344;2024-03-02T10:19:19;94197.44;;;10.49;100.00
3178;BME280;38141;42.666;23.344;2024-03-02T10:21:49;94196.28;;;10.46;100.00
3178;BME280;38141;42.666;23.344;2024-03-02T10:24:16;94193.97;;;10.48;100.00
3178;BME280;38141;42.666;23.344;2024-03-02T10:26:42;94198.19;;;10.49;100.00
3178;BME280;38141;42.666;23.344;2024-03-02T10:29:09;94190.91;;;10.43;100.00
3178;BME280;38141;42.666;23.344;2024-03-02T10:31:38;94182.50;;;10.27;100.00
3178;BME280;38141;42.666;23.344;2024-03-02T10:34:05;94191.19;;;10.59;100.00
3178;BME280;38141;42.666;23.344;2024-03-02T10:36:36;94186.63;;;10.45;100.00
3178;BME280;38141;42.666;23.344;2024-03-02T10:39:05;94199.72;;;10.54;100.00
3178;BME280;38141;42.666;23.344;2024-03-02T10:41:37;94162.31;;;10.42;100.00
3178;BME280;38141;42.666;23.344;2024-03-02T10:44:08;94154.16;;;10.52;100.00
3178;BME280;38141;42.666;23.344;2024-03-02T10:46:36;94192.34;;;10.65;100.00
3178;BME280;38141;42.666;23.344;2024-03-02T10:49:06;94186.72;;;10.31;100.00
3178;BME280;38141;42.666;23.344;2024-03-02T10:51:34;94184.28;;;10.51;100.00
3178;BME280;38141;42.666;23.344;2024-03-02T10:54:04;94150.28;;;10.53;100.00
3178;BME280;38141;42.666;23.344;2024-03-02T10:56:33;94193.06;;;10.73;100.00
3178;BME280;38141;42.666;23.344;2024-03-02T10:59:02;94191.63;;;10.50;100.00
3178;BME280;38141;42.666;23.344;2024-03-02T11:01:32;94177.72;;;10.52;100.00
3178;BME280;38141;42.666;23.344;2024-03-02T11:03:59;94168.75;;;10.65;100.00
3178;BME280;38141;42.666;23.344;2024-03-02T11:06:29;94181.25;;;10.42;100.00
3178;BME280;38141;42.666;23.344;2024-03-02T11:09:05;94132.56;;;10.45;100.00
3178;BME280;38141;42.666;23.344;2024-03-02T11:11:36;94178.75;;;10.72;100.00
3178;BME280;38141;42.666;23.344;2024-03-02T11:14:10;94154.13;;;10.56;100.00
3178;BME280;38141;42.666;23.344;2024-03-02T11:16:40;94160.41;;;11.01;100.00
3178;BME280;38141;42.666;23.344;2024-03-02T11:19:09;94156.91;;;11.04;100.00
3178;BME280;38141;42.666;23.344;2024-03-02T11:21:38;94100.00;;;10.59;100.00
3178;BME280;38141;42.666;23.344;2024-03-02T11:24:32;94166.31;;;10.89;100.00
3178;BME280;38141;42.666;23.344;2024-03-02T11:27:03;94087.78;;;10.37;100.00
3178;BME280;38141;42.666;23.344;2024-03-02T11:29:43;94147.50;;;10.71;100.00
3178;BME280;38141;42.666;23.344;2024-03-02T11:32:19;94146.59;;;10.88;100.00
3178;BME280;38141;42.666;23.344;2024-03-02T11:34:48;94087.59;;;9.96;100.00
3178;BME280;38141;42.666;23.344;2024-03-02T11:37:20;94168.16;;;10.33;100.00
3178;BME280;38141;42.666;23.344;2024-03-02T11:39:51;94160.78;;;10.41;100.00
3178;BME280;38141;42.666;23.344;2024-03-02T11:42:19;94122.25;;;10.19;100.00
3178;BME280;38141;42.666;23.344;2024-03-02T11:44:47;94091.50;;;9.77;100.00
3178;BME280;38141;42.666;23.344;2024-03-02T11:47:16;94165.06;;;10.35;100.00
3178;BME280;38141;42.666;23.344;2024-03-02T11:49:44;94159.31;;;10.15;100.00
3178;BME280;38141;42.666;23.344;2024-03-02T11:52:13;94168.19;;;10.30;100.00
3178;BME280;38141;42.666;23.344;2024-03-02T11:54:42;94130.00;;;10.10;100.00
3178;BME280;38141;42.666;23.344;2024-03-02T11:57:14;94168.84;;;10.51;100.00
3178;BME280;38141;42.666;23.344;2024-03-02T11:59:42;94164.94;;;10.59;100.00
3178;BME280;38141;42.666;23.344;2024-03-02T12:02:15;94169.31;;;10.32;100.00
3178;BME280;38141;42.666;23.344;2024-03-02T12:04:43;94164.97;;;10.52;100.00
3178;BME280;38141;42.666;23.344;2024-03-02T12:07:11;94162.63;;;10.58;100.00
3178;BME280;38141;42.666;23.344;2024-03-02T12:09:38;94163.47;;;10.41;100.00
3178;BME280;38141;42.666;23.344;2024-03-02T12:12:07;94170.56;;;10.06;100.00
3178;BME280;38141;42.666;23.344;2024-03-02T12:14:36;94170.16;;;10.22;100.00
3178;BME280;38141;42.666;23.344;2024-03-02T12:17:04;94168.25;;;10.08;100.00
3178;BME280;38141;42.666;23.344;2024-03-02T12:19:32;94172.84;;;10.15;100.00
3178;BME280;38141;42.666;23.344;2024-03-02T12:22:00;94168.16;;;10.33;100.00
3178;BME280;38141;42.666;23.344;2024-03-02T12:24:28;94169.34;;;10.29;100.00
3178;BME280;38141;42.666;23.344;2024-03-02T12:26:56;94176.31;;;10.22;100.00
3178;BME280;38141;42.666;23.344;2024-03-02T12:29:23;94171.25;;;10.35;100.00
3178;BME280;38141;42.666;23.344;2024-03-02T12:31:52;94168.44;;;10.49;100.00
3178;BME280;38141;42.666;23.344;2024-03-02T12:34:19;94171.19;;;10.46;100.00
3178;BME280;38141;42.666;23.344;2024-03-02T12:36:48;94168.41;;;10.60;100.00
3178;BME280;38141;42.666;23.344;2024-03-02T12:39:19;94166.50;;;10.57;100.00
3178;BME280;38141;42.666;23.344;2024-03-02T12:41:46;94162.22;;;10.59;100.00
3178;BME280;38141;42.666;23.344;2024-03-02T12:44:16;94169.19;;;10.60;100.00
3178;BME280;38141;42.666;23.344;2024-03-02T12:46:43;94171.75;;;10.82;100.00
3178;BME280;38141;42.666;23.344;2024-03-02T12:49:15;94173.44;;;10.54;100.00
3178;BME280;38141;42.666;23.344;2024-03-02T12:51:43;94162.63;;;10.54;100.00
3178;BME280;38141;42.666;23.344;2024-03-02T12:54:12;94157.91;;;10.73;100.00
3178;BME280;38141;42.666;23.344;2024-03-02T12:56:41;94157.94;;;10.65;100.00
3178;BME280;38141;42.666;23.344;2024-03-02T12:59:18;94090.06;;;10.46;100.00
3178;BME280;38141;42.666;23.344;2024-03-02T13:01:51;94091.72;;;10.29;100.00
3178;BME280;38141;42.666;23.344;2024-03-02T13:04:24;94131.25;;;10.67;100.00
3178;BME280;38141;42.666;23.344;2024-03-02T13:06:52;94166.00;;;11.28;100.00